createdAt,value
2022-09-09T00:01:21.620Z,98198.41
2022-09-09T00:04:15.522Z,98196.59
2022-09-09T00:06:51.718Z,98191.28
2022-09-09T00:09:21.953Z,98185.13
2022-09-09T00:12:17.771Z,98185.13
2022-09-09T00:15:03.949Z,98175.94
2022-09-09T00:17:40.826Z,98182.19
2022-09-09T00:20:58.269Z,98173.81
2022-09-09T00:23:41.020Z,98180.38
2022-09-09T00:26:21.487Z,98177.84
2022-09-09T00:29:03.563Z,98172.53
2022-09-09T00:31:32.946Z,98167.09
2022-09-09T00:34:24.489Z,98171.56
2022-09-09T00:36:54.236Z,98172.53
2022-09-09T00:39:35.909Z,98164.72
2022-09-09T00:42:15.302Z,98163.47
2022-09-09T00:45:22.774Z,98179.47
2022-09-09T00:47:54.412Z,98175.31
2022-09-09T00:50:33.891Z,98169.44
2022-09-09T00:53:25.793Z,98172.38
2022-09-09T00:56:01.348Z,98172.78
2022-09-09T00:58:28.938Z,98174.72
2022-09-09T01:01:14.728Z,98183.06
2022-09-09T01:04:00.668Z,98188.50
2022-09-09T01:06:40.734Z,98182.50
2022-09-09T01:09:31.106Z,98189.47
2022-09-09T01:12:17.682Z,98186.53
2022-09-09T01:14:57.127Z,98189.06
2022-09-09T01:17:33.607Z,98186.13
2022-09-09T01:20:15.304Z,98189.50
2022-09-09T01:23:20.737Z,98190.22
2022-09-09T01:26:13.177Z,98189.09
2022-09-09T01:28:43.497Z,98182.00
2022-09-09T01:31:15.403Z,98190.75
2022-09-09T01:33:42.163Z,98184.50
2022-09-09T01:36:40.735Z,98191.47
2022-09-09T01:39:07.637Z,98187.00
2022-09-09T01:41:34.469Z,98192.03
2022-09-09T01:44:01.260Z,98187.59
2022-09-09T01:46:30.047Z,98190.94
2022-09-09T01:48:59.913Z,98195.97
2022-09-09T01:51:26.842Z,98188.97
2022-09-09T01:53:53.447Z,98185.47
2022-09-09T01:56:42.281Z,98190.50
2022-09-09T01:59:43.097Z,98179.78
2022-09-09T02:02:16.250Z,98177.97
2022-09-09T02:05:24.781Z,98183.81
2022-09-09T02:07:57.298Z,98184.69
2022-09-09T02:10:47.939Z,98188.31
2022-09-09T02:13:17.022Z,98176.84
2022-09-09T02:16:09.901Z,98180.34
2022-09-09T02:18:43.975Z,98177.53
2022-09-09T02:21:14.730Z,98174.06
2022-09-09T02:23:43.956Z,98177.13
2022-09-09T02:26:14.257Z,98177.13
2022-09-09T02:28:43.112Z,98170.16
2022-09-09T02:31:10.281Z,98173.22
2022-09-09T02:33:42.556Z,98164.56
2022-09-09T02:36:13.361Z,98169.03
2022-09-09T02:38:46.623Z,98174.75
2022-09-09T02:41:13.214Z,98168.47
2022-09-09T02:43:39.759Z,98168.59
2022-09-09T02:46:22.135Z,98162.34
2022-09-09T02:48:59.251Z,98167.38
2022-09-09T02:52:01.981Z,98153.28
2022-09-09T02:54:32.876Z,98164.44
2022-09-09T02:57:12.919Z,98168.06
2022-09-09T02:59:40.658Z,98171.53
2022-09-09T03:02:07.402Z,98166.94
2022-09-09T03:04:34.214Z,98168.59
2022-09-09T03:07:00.891Z,98164.56
2022-09-09T03:09:27.923Z,98163.59
2022-09-09T03:11:56.594Z,98162.88
2022-09-09T03:14:25.603Z,98168.31
2022-09-09T03:16:57.511Z,98160.81
2022-09-09T03:19:24.306Z,98165.41
2022-09-09T03:21:50.829Z,98166.63
2022-09-09T03:24:17.417Z,98165.09
2022-09-09T03:26:46.794Z,98161.59
2022-09-09T03:29:13.843Z,98176.53
2022-09-09T03:31:41.352Z,98165.94
2022-09-09T03:34:08.182Z,98168.56
2022-09-09T03:36:34.872Z,98178.19
2022-09-09T03:39:03.851Z,98171.91
2022-09-09T03:41:31.185Z,98170.94
2022-09-09T03:43:57.765Z,98176.13
2022-09-09T03:46:26.408Z,98170.13
2022-09-09T03:48:53.450Z,98164.25
2022-09-09T03:51:20.185Z,98172.47
2022-09-09T03:53:52.428Z,98167.88
2022-09-09T03:56:18.969Z,98175.13
2022-09-09T03:58:45.559Z,98168.00
2022-09-09T04:01:14.765Z,98167.06
2022-09-09T04:03:41.951Z,98169.56
2022-09-09T04:06:10.591Z,98169.81
2022-09-09T04:08:38.332Z,98168.97
2022-09-09T04:11:07.198Z,98171.50
2022-09-09T04:13:35.203Z,98175.00
2022-09-09T04:16:03.518Z,98175.25
2022-09-09T04:18:30.293Z,98179.31
2022-09-09T04:21:00.345Z,98180.16
2022-09-09T04:23:29.869Z,98189.19
2022-09-09T04:25:58.274Z,98181.53
2022-09-09T04:28:27.075Z,98179.72
2022-09-09T04:30:53.795Z,98176.22
2022-09-09T04:33:20.627Z,98180.69
2022-09-09T04:35:49.373Z,98186.13
2022-09-09T04:38:17.858Z,98186.13
2022-09-09T04:40:48.378Z,98193.25
2022-09-09T04:43:15.792Z,98187.09
2022-09-09T04:45:43.405Z,98196.13
2022-09-09T04:48:15.956Z,98194.06
2022-09-09T04:50:43.016Z,98193.47
2022-09-09T04:53:10.099Z,98199.63
2022-09-09T04:55:37.031Z,98194.22
2022-09-09T04:58:08.031Z,98202.00
2022-09-09T05:00:36.609Z,98200.22
2022-09-09T05:03:05.361Z,98196.72
2022-09-09T05:05:33.045Z,98205.47
2022-09-09T05:08:07.441Z,98200.88
2022-09-09T05:10:35.389Z,98208.81
2022-09-09T05:13:01.944Z,98208.94
2022-09-09T05:15:28.602Z,98200.03
2022-09-09T05:18:01.248Z,98200.59
2022-09-09T05:20:28.958Z,98204.22
2022-09-09T05:22:56.489Z,98194.88
2022-09-09T05:25:23.658Z,98198.63
2022-09-09T05:27:50.668Z,98201.00
2022-09-09T05:30:19.718Z,98209.66
2022-09-09T05:32:46.268Z,98210.09
2022-09-09T05:35:14.440Z,98207.47
2022-09-09T05:37:41.117Z,98202.16
2022-09-09T05:40:08.423Z,98203.69
2022-09-09T05:42:35.312Z,98208.84
2022-09-09T05:45:01.866Z,98211.22
2022-09-09T05:47:31.556Z,98207.03
2022-09-09T05:49:58.137Z,98216.66
2022-09-09T05:52:26.619Z,98214.84
2022-09-09T05:54:53.215Z,98219.19
2022-09-09T05:57:20.492Z,98227.69
2022-09-09T05:59:47.322Z,98218.63
2022-09-09T06:02:14.545Z,98212.09
2022-09-09T06:04:41.263Z,98222.41
2022-09-09T06:07:08.009Z,98224.91
2022-09-09T06:09:34.722Z,98221.28
2022-09-09T06:12:01.332Z,98222.94
2022-09-09T06:14:28.277Z,98224.66
2022-09-09T06:16:54.866Z,98223.94
2022-09-09T06:19:21.660Z,98218.38
2022-09-09T06:21:48.911Z,98220.19
2022-09-09T06:24:18.264Z,98218.22
2022-09-09T06:26:45.184Z,98215.31
2022-09-09T06:29:12.058Z,98212.94
2022-09-09T06:31:39.189Z,98216.44
2022-09-09T06:34:07.785Z,98218.22
2022-09-09T06:36:37.768Z,98227.16
2022-09-09T06:39:04.727Z,98225.19
2022-09-09T06:41:32.967Z,98219.63
2022-09-09T06:43:59.955Z,98224.69
2022-09-09T06:46:29.851Z,98224.41
2022-09-09T06:48:58.375Z,98222.56
2022-09-09T06:51:26.923Z,98227.19
2022-09-09T06:53:59.276Z,98224.69
2022-09-09T06:56:37.629Z,98230.81
2022-09-09T06:59:06.870Z,98218.97
2022-09-09T07:01:38.988Z,98226.91
2022-09-09T07:04:08.695Z,98231.97
2022-09-09T07:06:38.148Z,98233.50
2022-09-09T07:09:13.077Z,98242.88
2022-09-09T07:11:45.440Z,98243.72
2022-09-09T07:14:15.438Z,98241.25
2022-09-09T07:16:43.223Z,98244.16
2022-09-09T07:19:10.617Z,98246.81
2022-09-09T07:21:37.933Z,98250.03
2022-09-09T07:24:08.233Z,98244.19
2022-09-09T07:26:35.329Z,98238.72
2022-09-09T07:29:01.933Z,98241.84
2022-09-09T07:31:33.926Z,98252.28
2022-09-09T07:34:01.728Z,98244.91
2022-09-09T07:36:33.440Z,98245.47
2022-09-09T07:39:20.515Z,98247.84
2022-09-09T07:41:51.992Z,98262.75
2022-09-09T07:44:22.443Z,98256.47
2022-09-09T07:46:49.478Z,98263.06
2022-09-09T07:49:16.441Z,98252.16
2022-09-09T07:51:46.274Z,98258.28
2022-09-09T07:54:16.155Z,98246.00
2022-09-09T07:56:43.564Z,98246.69
2022-09-09T07:59:10.634Z,98235.81
2022-09-09T08:01:40.442Z,98242.22
2022-09-09T08:04:09.641Z,98245.94
2022-09-09T08:06:39.631Z,98262.47
2022-09-09T08:09:07.954Z,98260.78
2022-09-09T08:11:38.775Z,98255.06
2022-09-09T08:14:06.596Z,98251.34
2022-09-09T08:16:37.405Z,98262.63
2022-09-09T08:19:04.952Z,98255.44
2022-09-09T08:21:34.170Z,98252.50
2022-09-09T08:24:02.564Z,98253.00
2022-09-09T08:26:35.731Z,98250.63
2022-09-09T08:29:04.284Z,98247.56
2022-09-09T08:31:38.143Z,98241.41
2022-09-09T08:34:05.926Z,98236.63
2022-09-09T08:36:39.345Z,98242.03
2022-09-09T08:39:08.024Z,98252.50
2022-09-09T08:41:37.543Z,98247.06
2022-09-09T08:44:32.050Z,98244.84
2022-09-09T08:47:21.954Z,98249.59
2022-09-09T08:50:07.592Z,98254.78
2022-09-09T08:53:03.290Z,98253.75
2022-09-09T08:55:42.678Z,98259.44
2022-09-09T08:58:30.552Z,98257.94
2022-09-09T09:01:09.326Z,98261.19
2022-09-09T09:04:14.611Z,98256.38
2022-09-09T09:07:05.818Z,98253.72
2022-09-09T09:09:38.149Z,98264.88
2022-09-09T09:12:17.618Z,98256.97
2022-09-09T09:14:47.607Z,98271.63
2022-09-09T09:17:18.479Z,98261.81
2022-09-09T09:19:47.482Z,98273.13
2022-09-09T09:22:27.557Z,98257.91
2022-09-09T09:24:54.109Z,98262.09
2022-09-09T09:27:34.698Z,98256.78
2022-09-09T09:30:22.886Z,98237.84
2022-09-09T09:33:06.963Z,98241.78
2022-09-09T09:35:36.291Z,98250.41
2022-09-09T09:41:05.323Z,98243.59
2022-09-09T09:43:34.396Z,98240.00
2022-09-09T09:46:16.582Z,98231.25
2022-09-09T09:48:43.974Z,98233.97
2022-09-09T09:51:14.864Z,98240.91
2022-09-09T09:53:44.839Z,98240.84
2022-09-09T09:56:14.270Z,98249.97
2022-09-09T09:58:51.141Z,98269.06
2022-09-09T10:01:32.175Z,98264.63
2022-09-09T10:03:59.956Z,98268.88
2022-09-09T10:06:37.799Z,98278.78
2022-09-09T10:09:22.475Z,98272.81
2022-09-09T10:12:27.162Z,98264.56
2022-09-09T10:15:17.434Z,98264.44
2022-09-09T10:17:52.958Z,98264.44
2022-09-09T10:20:34.759Z,98263.56
2022-09-09T10:23:33.655Z,98260.63
2022-09-09T10:26:50.939Z,98264.97
2022-09-09T10:29:39.019Z,98260.84
2022-09-09T10:32:26.951Z,98261.00
2022-09-09T10:34:57.524Z,98260.44
2022-09-09T10:37:56.664Z,98258.72
2022-09-09T10:41:02.430Z,98254.16
2022-09-09T10:43:52.664Z,98255.94
2022-09-09T10:46:50.482Z,98243.75
2022-09-09T10:49:50.403Z,98239.16
2022-09-09T10:52:16.988Z,98245.25
2022-09-09T10:55:06.835Z,98241.47
2022-09-09T10:57:50.942Z,98230.81
2022-09-09T11:00:44.030Z,98231.53
2022-09-09T11:03:23.487Z,98224.22
2022-09-09T11:06:06.970Z,98225.38
2022-09-09T11:08:38.940Z,98227.00
2022-09-09T11:11:23.183Z,98218.75
2022-09-09T11:13:52.629Z,98217.44
2022-09-09T11:16:35.691Z,98209.47
2022-09-09T11:19:43.719Z,98206.34
2022-09-09T11:22:52.189Z,98203.09
2022-09-09T11:25:23.052Z,98202.47
2022-09-09T11:27:52.460Z,98189.97
2022-09-09T11:30:51.166Z,98193.44
2022-09-09T11:33:39.657Z,98191.13
2022-09-09T11:36:28.142Z,98197.78
2022-09-09T11:39:19.660Z,98181.09
2022-09-09T11:41:46.259Z,98175.31
2022-09-09T11:44:18.905Z,98175.81
2022-09-09T11:46:50.813Z,98178.63
2022-09-09T11:49:40.283Z,98184.47
2022-09-09T11:52:23.274Z,98174.81
2022-09-09T11:54:51.348Z,98190.28
2022-09-09T11:57:49.696Z,98219.41
2022-09-09T12:00:41.197Z,98219.41
2022-09-09T12:03:33.546Z,98216.00
2022-09-09T12:06:01.575Z,98209.72
2022-09-09T12:08:30.237Z,98207.22
2022-09-09T12:11:00.511Z,98204.09
2022-09-09T12:13:28.401Z,98192.81
2022-09-09T12:15:57.609Z,98196.88
2022-09-09T12:18:40.927Z,98203.38
2022-09-09T12:21:34.609Z,98212.16
2022-09-09T12:24:15.612Z,98229.56
2022-09-09T12:26:54.847Z,98234.00
2022-09-09T12:29:56.450Z,98228.09
2022-09-09T12:32:27.865Z,98225.19
2022-09-09T12:35:10.869Z,98221.09
2022-09-09T12:37:42.651Z,98211.94
2022-09-09T12:40:27.429Z,98205.97
2022-09-09T12:42:56.244Z,98202.09
2022-09-09T12:45:28.084Z,98205.03
2022-09-09T12:48:07.448Z,98209.13
2022-09-09T12:50:44.724Z,98211.78
2022-09-09T12:53:24.339Z,98203.34
2022-09-09T12:55:59.886Z,98197.28
2022-09-09T12:58:29.341Z,98207.13
2022-09-09T13:00:58.009Z,98201.34
2022-09-09T13:03:26.045Z,98201.22
2022-09-09T13:05:54.302Z,98196.16
2022-09-09T13:08:21.489Z,98192.50
2022-09-09T13:11:02.618Z,98192.97
2022-09-09T13:13:31.986Z,98198.53
2022-09-09T13:16:02.600Z,98200.56
2022-09-09T13:18:36.574Z,98187.31
2022-09-09T13:21:04.006Z,98195.34
2022-09-09T13:23:33.867Z,98185.97
2022-09-09T13:26:22.861Z,98187.25
2022-09-09T13:28:50.509Z,98175.84
2022-09-09T13:31:32.726Z,98180.50
2022-09-09T13:36:35.876Z,98181.84
2022-09-09T13:39:04.468Z,98185.41
2022-09-09T13:41:35.797Z,98183.88
2022-09-09T13:44:04.467Z,98185.53
2022-09-09T13:46:37.944Z,98181.31
2022-09-09T13:49:22.813Z,98178.84
2022-09-09T13:51:53.215Z,98180.22
2022-09-09T13:54:21.323Z,98188.09
2022-09-09T13:56:50.662Z,98181.28
2022-09-09T13:59:22.553Z,98181.13
2022-09-09T14:01:50.263Z,98178.81
2022-09-09T14:04:16.841Z,98165.03
2022-09-09T14:06:44.501Z,98164.13
2022-09-09T14:09:13.351Z,98153.28
2022-09-09T14:11:41.528Z,98157.03
2022-09-09T14:14:08.349Z,98152.44
2022-09-09T14:16:35.477Z,98149.16
2022-09-09T14:19:02.151Z,98147.41
2022-09-09T14:21:29.568Z,98145.00
2022-09-09T14:23:56.231Z,98138.97
2022-09-09T14:26:24.439Z,98136.16
2022-09-09T14:28:55.197Z,98146.81
2022-09-09T14:31:23.394Z,98155.66
2022-09-09T14:33:50.110Z,98154.09
2022-09-09T14:36:16.671Z,98153.25
2022-09-09T14:38:46.626Z,98170.34
2022-09-09T14:41:19.031Z,98195.72
2022-09-09T14:43:46.628Z,98203.66
2022-09-09T14:46:15.889Z,98200.53
2022-09-09T14:48:42.726Z,98213.81
2022-09-09T14:51:11.842Z,98218.28
2022-09-09T14:53:38.549Z,98200.31
2022-09-09T14:56:15.232Z,98203.75
2022-09-09T14:58:41.946Z,98192.81
2022-09-09T15:01:13.943Z,98185.22
2022-09-09T15:03:42.509Z,98193.25
2022-09-09T15:06:11.425Z,98186.34
2022-09-09T15:08:42.405Z,98203.25
2022-09-09T15:11:11.372Z,98205.75
2022-09-09T15:13:40.253Z,98203.97
2022-09-09T15:16:07.046Z,98194.16
2022-09-09T15:18:34.638Z,98193.22
2022-09-09T15:21:04.112Z,98188.94
2022-09-09T15:23:32.745Z,98189.69
2022-09-09T15:25:59.763Z,98198.47
2022-09-09T15:28:26.906Z,98209.53
2022-09-09T15:30:54.823Z,98206.31
2022-09-09T15:33:23.451Z,98210.66
2022-09-09T15:35:50.818Z,98217.47
2022-09-09T15:38:18.323Z,98214.53
2022-09-09T15:40:45.111Z,98219.53
2022-09-09T15:43:11.781Z,98224.16
2022-09-09T15:45:38.543Z,98227.13
2022-09-09T15:48:05.575Z,98232.44
2022-09-09T15:50:33.421Z,98231.63
2022-09-09T15:53:00.851Z,98231.59
2022-09-09T15:55:27.517Z,98226.88
2022-09-09T15:57:54.193Z,98225.47
2022-09-09T16:00:21.512Z,98230.19
2022-09-09T16:02:48.943Z,98221.09
2022-09-09T16:05:18.391Z,98226.38
2022-09-09T16:07:45.983Z,98218.63
2022-09-09T16:10:14.730Z,98224.56
2022-09-09T16:12:41.327Z,98226.06
2022-09-09T16:15:08.326Z,98222.66
2022-09-09T16:17:38.712Z,98233.38
2022-09-09T16:20:08.220Z,98241.41
2022-09-09T16:22:34.894Z,98242.69
2022-09-09T16:25:01.464Z,98242.69
2022-09-09T16:27:28.049Z,98254.47
2022-09-09T16:29:54.807Z,98247.00
2022-09-09T16:32:21.361Z,98245.09
2022-09-09T16:34:47.994Z,98243.88
2022-09-09T16:37:14.574Z,98247.09
2022-09-09T16:39:41.221Z,98241.31
2022-09-09T16:42:08.564Z,98242.44
2022-09-09T16:44:35.128Z,98242.75
2022-09-09T16:47:01.737Z,98238.69
2022-09-09T16:49:29.783Z,98234.94
2022-09-09T16:51:58.940Z,98230.34
2022-09-09T16:54:28.169Z,98235.97
2022-09-09T16:56:54.938Z,98231.63
2022-09-09T16:59:22.952Z,98235.13
2022-09-09T17:01:51.654Z,98237.38
2022-09-09T17:04:21.823Z,98240.03
2022-09-09T17:06:50.348Z,98246.88
2022-09-09T17:09:17.481Z,98242.41
2022-09-09T17:11:45.012Z,98249.69
2022-09-09T17:14:15.122Z,98266.72
2022-09-09T17:16:42.014Z,98268.56
2022-09-09T17:19:09.943Z,98287.56
2022-09-09T17:21:45.739Z,98306.56
2022-09-09T17:24:16.777Z,98295.88
2022-09-09T17:26:44.001Z,98298.22
2022-09-09T17:29:12.259Z,98299.22
2022-09-09T17:31:39.083Z,98311.78
2022-09-09T17:34:06.092Z,98322.94
2022-09-09T17:36:34.527Z,98320.41
2022-09-09T17:39:02.545Z,98318.84
2022-09-09T17:41:31.614Z,98312.41
2022-09-09T17:43:59.425Z,98316.19
2022-09-09T17:46:29.261Z,98323.47
2022-09-09T17:48:59.314Z,98337.69
2022-09-09T17:51:31.199Z,98342.72
2022-09-09T17:54:01.389Z,98327.78
2022-09-09T17:56:33.930Z,98330.28
2022-09-09T17:59:02.364Z,98327.53
2022-09-09T18:01:34.477Z,98324.19
2022-09-09T18:04:04.762Z,98328.63
2022-09-09T18:06:43.096Z,98331.44
2022-09-09T18:09:13.571Z,98340.38
2022-09-09T18:11:46.594Z,98343.63
2022-09-09T18:14:20.090Z,98347.53
2022-09-09T18:16:47.209Z,98338.50
2022-09-09T18:19:16.878Z,98342.81
2022-09-09T18:21:44.638Z,98347.84
2022-09-09T18:24:13.230Z,98342.53
2022-09-09T18:26:41.303Z,98352.19
2022-09-09T18:29:11.178Z,98337.25
2022-09-09T18:31:38.055Z,98350.66
2022-09-09T18:34:06.680Z,98364.63
2022-09-09T18:36:41.165Z,98364.03
2022-09-09T18:39:08.796Z,98362.34
2022-09-09T18:41:41.624Z,98358.03
2022-09-09T18:44:13.653Z,98358.72
2022-09-09T18:46:41.156Z,98361.75
2022-09-09T18:49:08.269Z,98360.91
2022-09-09T18:51:37.076Z,98366.47
2022-09-09T18:54:07.803Z,98369.13
2022-09-09T18:56:35.250Z,98371.03
2022-09-09T18:59:04.557Z,98365.75
2022-09-09T19:01:31.362Z,98371.19
2022-09-09T19:03:58.073Z,98371.47
2022-09-09T19:06:30.903Z,98372.28
2022-09-09T19:09:02.890Z,98367.13
2022-09-09T19:11:30.185Z,98366.28
2022-09-09T19:13:59.410Z,98371.47
2022-09-09T19:16:29.272Z,98364.47
2022-09-09T19:18:59.114Z,98373.25
2022-09-09T19:21:28.038Z,98380.22
2022-09-09T19:24:00.048Z,98376.75
2022-09-09T19:26:33.304Z,98383.03
2022-09-09T19:29:00.892Z,98391.97
2022-09-09T19:31:31.078Z,98391.81
2022-09-09T19:33:58.005Z,98390.00
2022-09-09T19:36:27.883Z,98395.31
2022-09-09T19:38:55.111Z,98388.47
2022-09-09T19:41:24.709Z,98384.00
2022-09-09T19:43:59.414Z,98386.50
2022-09-09T19:46:26.380Z,98390.13
2022-09-09T19:48:52.969Z,98384.84
2022-09-09T19:51:21.734Z,98379.66
2022-09-09T19:53:56.412Z,98386.06
2022-09-09T19:56:25.070Z,98389.00
2022-09-09T19:58:52.276Z,98392.63
2022-09-09T20:01:24.910Z,98394.69
2022-09-09T20:03:54.386Z,98385.84
2022-09-09T20:06:24.202Z,98384.53
2022-09-09T20:08:51.191Z,98388.44
2022-09-09T20:11:18.238Z,98395.78
2022-09-09T20:13:45.067Z,98396.53
2022-09-09T20:16:21.430Z,98395.41
2022-09-09T20:18:52.400Z,98399.88
2022-09-09T20:21:33.553Z,98395.66
2022-09-09T20:24:00.883Z,98391.47
2022-09-09T20:26:33.558Z,98391.88
2022-09-09T20:29:00.925Z,98394.75
2022-09-09T20:31:30.089Z,98395.03
2022-09-09T20:33:58.516Z,98392.78
2022-09-09T20:36:27.775Z,98387.00
2022-09-09T20:38:58.019Z,98388.97
2022-09-09T20:41:27.943Z,98395.22
2022-09-09T20:44:03.796Z,98389.59
2022-09-09T20:46:39.193Z,98387.22
2022-09-09T20:49:08.024Z,98391.66
2022-09-09T20:51:36.003Z,98376.75
2022-09-09T20:54:08.842Z,98388.03
2022-09-09T20:56:40.091Z,98378.19
2022-09-09T20:59:10.285Z,98383.22
2022-09-09T21:01:38.111Z,98380.41
2022-09-09T21:04:05.469Z,98378.88
2022-09-09T21:06:32.078Z,98377.78
2022-09-09T21:08:58.613Z,98381.00
2022-09-09T21:11:25.235Z,98368.84
2022-09-09T21:13:51.812Z,98375.28
2022-09-09T21:16:21.734Z,98385.00
2022-09-09T21:18:49.241Z,98390.19
2022-09-09T21:21:19.233Z,98391.97
2022-09-09T21:23:46.473Z,98396.44
2022-09-09T21:26:13.046Z,98392.25
2022-09-09T21:28:39.655Z,98400.06
2022-09-09T21:31:06.920Z,98395.22
2022-09-09T21:33:34.375Z,98393.44
2022-09-09T21:36:08.138Z,98389.81
2022-09-09T21:38:35.350Z,98393.44
2022-09-09T21:41:06.223Z,98385.34
2022-09-09T21:43:33.059Z,98387.97
2022-09-09T21:46:00.020Z,98386.03
2022-09-09T21:48:29.803Z,98382.44
2022-09-09T21:50:56.438Z,98384.25
2022-09-09T21:53:25.579Z,98391.50
2022-09-09T21:55:52.109Z,98387.97
2022-09-09T21:58:18.871Z,98399.81
2022-09-09T22:00:49.823Z,98395.75
2022-09-09T22:03:17.138Z,98402.25
2022-09-09T22:05:46.012Z,98398.88
2022-09-09T22:08:16.406Z,98390.50
2022-09-09T22:10:48.641Z,98394.22
2022-09-09T22:13:17.133Z,98397.00
2022-09-09T22:15:45.528Z,98398.09
2022-09-09T22:18:15.512Z,98392.94
2022-09-09T22:20:44.120Z,98395.13
2022-09-09T22:23:16.962Z,98390.09
2022-09-09T22:25:44.743Z,98390.72
2022-09-09T22:28:11.909Z,98394.31
2022-09-09T22:30:38.790Z,98389.03
2022-09-09T22:33:05.998Z,98385.75
2022-09-09T22:35:32.621Z,98396.22
2022-09-09T22:37:59.525Z,98401.78
2022-09-09T22:40:26.134Z,98398.88
2022-09-09T22:42:53.278Z,98398.28
2022-09-09T22:45:21.758Z,98398.16
2022-09-09T22:47:48.607Z,98397.69
2022-09-09T22:50:15.260Z,98409.81
2022-09-09T22:52:44.594Z,98404.91
2022-09-09T22:55:11.150Z,98404.91
2022-09-09T22:57:37.701Z,98404.06
2022-09-09T23:00:10.050Z,98403.94
2022-09-09T23:02:40.846Z,98412.50
2022-09-09T23:05:10.683Z,98402.41
2022-09-09T23:07:37.843Z,98407.84
2022-09-09T23:10:05.609Z,98407.72
2022-09-09T23:12:32.768Z,98406.13
2022-09-09T23:14:59.345Z,98399.69
2022-09-09T23:17:26.591Z,98403.75
2022-09-09T23:19:54.490Z,98396.53
2022-09-09T23:22:21.187Z,98405.31
2022-09-09T23:24:49.142Z,98404.59
2022-09-09T23:27:16.540Z,98398.00
2022-09-09T23:29:43.078Z,98399.94
2022-09-09T23:32:09.625Z,98399.06
2022-09-09T23:34:36.319Z,98405.22
2022-09-09T23:37:02.866Z,98396.69
2022-09-09T23:39:29.463Z,98400.41
2022-09-09T23:41:56.701Z,98397.91
2022-09-09T23:44:23.347Z,98398.72
2022-09-09T23:46:50.123Z,98402.72
2022-09-09T23:49:16.809Z,98408.00
2022-09-09T23:51:43.850Z,98409.91
2022-09-09T23:54:10.783Z,98402.22
2022-09-09T23:56:42.600Z,98408.47
2022-09-09T23:59:09.312Z,98409.91
